Miniplon — FIDV — position and weather

sailwx.info

Track history (hours):
 
Tides and Currents Weather Stations Pressure Air Temp Water Temp Dewpoint Dewpoint Depression Visibility Wind Speed Wind Dir Waves Ship Positions

Miniplon

Last reported at 2016-May-20 13:33 UTC. Time now 2016-May-25 16:57 UTC.
Position N 46°30' W 001°47'.

Length 22 m.

Type: SAR. MMSI: 228024600.

Date/timePositionNaut miles runAvg speedWind from/ knotsBaromVisibWave heightAir tempDewpointWater temp
2016-May-20 13:33N 46°30' W 001°47'0 0.2
2016-May-20 12:31N 46°30' W 001°48'0 0.0
2016-May-20 11:31N 46°30' W 001°48'0 0.0
2016-May-20 10:31N 46°30' W 001°48'0 0.0
2016-May-20 09:31N 46°30' W 001°48'0 0.0
2016-May-20 08:31N 46°30' W 001°48'0 0.0
2016-May-20 07:31N 46°30' W 001°48'0 0.0
2016-May-20 06:31N 46°30' W 001°48'0 0.0
2016-May-20 05:31N 46°30' W 001°48'0 0.0
2016-May-20 04:31N 46°30' W 001°48'0 0.0
2016-May-20 03:31N 46°30' W 001°48'0 0.3
2016-May-20 02:33N 46°30' W 001°48'0 0.3
2016-May-20 01:34N 46°30' W 001°47'0 0.0
2016-May-20 00:34N 46°30' W 001°47'0 0.0
2016-May-19 23:34N 46°30' W 001°47'0 0.0
2016-May-19 22:31N 46°30' W 001°47'0 0.0
2016-May-19 21:31N 46°30' W 001°47'0 0.0
2016-May-19 20:34N 46°30' W 001°47'0 0.0
2016-May-19 19:31N 46°30' W 001°47'0 0.0
2016-May-19 18:34N 46°30' W 001°47'0 0.0
2016-May-19 17:33N 46°30' W 001°47'0 0.0
2016-May-19 16:33N 46°30' W 001°47'0 0.1
2016-May-19 15:33N 46°30' W 001°47'0 0.0
2016-May-17 17:32N 46°30' W 001°48'7 7.0
2016-May-17 16:31N 46°25' W 001°40'4 4.6
2016-May-17 15:33N 46°28' W 001°45'8 7.7
2016-May-17 14:33N 46°31' W 001°55'8 0.9
2016-May-17 05:29N 46°36' W 002°04'9 9.8
2016-May-17 04:33N 46°31' W 001°54'5 4.5
2016-May-17 03:32N 46°30' W 001°47'0 0.0
2016-May-16 01:24N 46°30' W 001°47'4 4.8
2016-May-16 00:33N 46°30' W 001°53'9 9.4
2016-May-15 23:33N 46°36' W 002°04'2 0.0
2016-May-14 08:24N 46°37' W 002°06'8 9.5
2016-May-14 07:33N 46°32' W 001°57'7 6.6
2016-May-14 06:32N 46°30' W 001°47'0 0.0
2016-May-14 05:32N 46°30' W 001°47'0 0.0
2016-May-14 04:32N 46°30' W 001°47'0 0.0
2016-May-14 03:32N 46°30' W 001°47'0 0.0
2016-May-14 02:32N 46°30' W 001°47'0 0.0
2016-May-14 01:32N 46°30' W 001°47'0 0.0
2016-May-14 00:32N 46°30' W 001°47'0 0.0
2016-May-13 23:32N 46°30' W 001°47'0 0.0
2016-May-13 22:32N 46°30' W 001°47'0 0.0
2016-May-13 21:32N 46°30' W 001°47'0 0.0
2016-May-13 20:32N 46°30' W 001°47'0 0.1
2016-May-13 19:33N 46°30' W 001°47'0 0.0
2016-May-13 18:33N 46°30' W 001°47'0 0.0
2016-May-13 17:33N 46°30' W 001°47'0 0.0
2016-May-13 16:33N 46°30' W 001°47'0 0.0
2016-May-13 15:33N 46°30' W 001°47'0 0.0
2016-May-13 14:33N 46°30' W 001°47'0 0.0
2016-May-13 13:33N 46°30' W 001°47'0 0.2
2016-May-13 12:33N 46°30' W 001°48'0 0.0
2016-May-13 11:33N 46°30' W 001°48'0 0.0
2016-May-13 10:33N 46°30' W 001°48'0 0.0
2016-May-13 09:32N 46°30' W 001°48'0 0.0
2016-May-13 08:32N 46°30' W 001°48'0 0.2
2016-May-13 07:31N 46°30' W 001°47'0 0.0
2016-May-13 06:31N 46°30' W 001°47'0 0.0
2016-May-13 05:31N 46°30' W 001°47'0 0.0
2016-May-13 04:31N 46°30' W 001°47'0 0.0
2016-May-13 03:31N 46°30' W 001°47'0 0.0
2016-May-13 02:31N 46°30' W 001°47'0 0.0
2016-May-13 01:31N 46°30' W 001°47'0 0.0
2016-May-13 00:31N 46°30' W 001°47'0 0.0
2016-May-12 23:31N 46°30' W 001°47'0 0.0
2016-May-12 22:31N 46°30' W 001°47'0 0.0
2016-May-12 21:31N 46°30' W 001°47'0 0.0
2016-May-12 20:31N 46°30' W 001°47'0 0.0
2016-May-12 19:31N 46°30' W 001°47'0 0.0
2016-May-12 18:31N 46°30' W 001°47'0 0.0
2016-May-12 17:31N 46°30' W 001°47'0 0.0
2016-May-12 16:31N 46°30' W 001°47'0 0.0
2016-May-12 15:31N 46°30' W 001°47'0 0.0
2016-May-12 14:31N 46°30' W 001°47'0 0.0
2016-May-12 13:31N 46°30' W 001°47'0 0.0
2016-May-12 12:31N 46°30' W 001°47'0 0.0
2016-May-12 11:31N 46°30' W 001°47'0 0.0
2016-May-12 10:31N 46°30' W 001°47'0 0.0
2016-May-12 09:31N 46°30' W 001°47'0 0.0
2016-May-12 08:31N 46°30' W 001°47'0 0.0
2016-May-12 07:31N 46°30' W 001°47'0 0.0
2016-May-12 06:31N 46°30' W 001°47'0 0.0
2016-May-12 05:31N 46°30' W 001°47'0 0.0
2016-May-12 04:31N 46°30' W 001°47'0 0.0
2016-May-12 03:32N 46°30' W 001°47'0 0.0
2016-May-12 02:31N 46°30' W 001°47'0 0.0
2016-May-12 01:31N 46°30' W 001°47'0 0.0
2016-May-12 00:31N 46°30' W 001°47'0 0.2
2016-May-11 23:33N 46°30' W 001°47'6 5.6
2016-May-11 22:33N 46°32' W 001°55'9 8.8
2016-May-11 21:33N 46°37' W 002°05'35 8.5
2016-May-11 17:30N 47°07' W 002°32'9 8.9
2016-May-11 16:30N 47°15' W 002°34'3 1.4
2016-May-11 14:33N 47°18' W 002°35'2 1.7
2016-May-11 13:33N 47°16' W 002°33'4 4.1
2016-May-11 12:32N 47°15' W 002°39'5 5.2
2016-May-11 11:34N 47°15' W 002°47'1 0.5
2016-May-11 10:33N 47°15' W 002°46'1 0.9
2016-May-11 09:32N 47°15' W 002°45'0 0.4
2016-May-11 08:33N 47°15' W 002°45'1 0.7
2016-May-11 07:33N 47°15' W 002°46'4 3.5
2016-May-11 06:33N 47°15' W 002°40'8 8.2
2016-May-11 05:32N 47°20' W 002°31'1 0.1
2016-May-10 20:14N 47°21' W 002°31'0 0.0
2016-May-10 19:32N 47°21' W 002°31'0 0.0
2016-May-10 16:33N 47°21' W 002°31'0 0.0
2016-May-10 15:05N 47°21' W 002°31'0 0.0
2016-May-10 14:32N 47°21' W 002°31'  
Track history (hours):
 
Tides and Currents Weather Stations Pressure Air Temp Water Temp Dewpoint Dewpoint Depression Visibility Wind Speed Wind Dir Waves Ship Positions

Miniplon

Last reported at 2016-May-20 13:33 UTC. Time now 2016-May-25 16:57 UTC.
Position N 46°30' W 001°47'.

Length 22 m.

Type: SAR. MMSI: 228024600.

Date/timePositionNaut miles runAvg speedWind from/ knotsBaromVisibWave heightAir tempDewpointWater temp
2016-May-20 13:33N 46°30' W 001°47'0 0.2
2016-May-20 12:31N 46°30' W 001°48'0 0.0
2016-May-20 11:31N 46°30' W 001°48'0 0.0
2016-May-20 10:31N 46°30' W 001°48'0 0.0
2016-May-20 09:31N 46°30' W 001°48'0 0.0
2016-May-20 08:31N 46°30' W 001°48'0 0.0
2016-May-20 07:31N 46°30' W 001°48'0 0.0
2016-May-20 06:31N 46°30' W 001°48'0 0.0
2016-May-20 05:31N 46°30' W 001°48'0 0.0
2016-May-20 04:31N 46°30' W 001°48'0 0.0
2016-May-20 03:31N 46°30' W 001°48'0 0.3
2016-May-20 02:33N 46°30' W 001°48'0 0.3
2016-May-20 01:34N 46°30' W 001°47'0 0.0
2016-May-20 00:34N 46°30' W 001°47'0 0.0
2016-May-19 23:34N 46°30' W 001°47'0 0.0
2016-May-19 22:31N 46°30' W 001°47'0 0.0
2016-May-19 21:31N 46°30' W 001°47'0 0.0
2016-May-19 20:34N 46°30' W 001°47'0 0.0
2016-May-19 19:31N 46°30' W 001°47'0 0.0
2016-May-19 18:34N 46°30' W 001°47'0 0.0
2016-May-19 17:33N 46°30' W 001°47'0 0.0
2016-May-19 16:33N 46°30' W 001°47'0 0.1
2016-May-19 15:33N 46°30' W 001°47'0 0.0
2016-May-17 17:32N 46°30' W 001°48'7 7.0
2016-May-17 16:31N 46°25' W 001°40'4 4.6
2016-May-17 15:33N 46°28' W 001°45'8 7.7
2016-May-17 14:33N 46°31' W 001°55'8 0.9
2016-May-17 05:29N 46°36' W 002°04'9 9.8
2016-May-17 04:33N 46°31' W 001°54'5 4.5
2016-May-17 03:32N 46°30' W 001°47'0 0.0
2016-May-16 01:24N 46°30' W 001°47'4 4.8
2016-May-16 00:33N 46°30' W 001°53'9 9.4
2016-May-15 23:33N 46°36' W 002°04'2 0.0
2016-May-14 08:24N 46°37' W 002°06'8 9.5
2016-May-14 07:33N 46°32' W 001°57'7 6.6
2016-May-14 06:32N 46°30' W 001°47'0 0.0
2016-May-14 05:32N 46°30' W 001°47'0 0.0
2016-May-14 04:32N 46°30' W 001°47'0 0.0
2016-May-14 03:32N 46°30' W 001°47'0 0.0
2016-May-14 02:32N 46°30' W 001°47'0 0.0
2016-May-14 01:32N 46°30' W 001°47'0 0.0
2016-May-14 00:32N 46°30' W 001°47'0 0.0
2016-May-13 23:32N 46°30' W 001°47'0 0.0
2016-May-13 22:32N 46°30' W 001°47'0 0.0
2016-May-13 21:32N 46°30' W 001°47'0 0.0
2016-May-13 20:32N 46°30' W 001°47'0 0.1
2016-May-13 19:33N 46°30' W 001°47'0 0.0
2016-May-13 18:33N 46°30' W 001°47'0 0.0
2016-May-13 17:33N 46°30' W 001°47'0 0.0
2016-May-13 16:33N 46°30' W 001°47'0 0.0
2016-May-13 15:33N 46°30' W 001°47'0 0.0
2016-May-13 14:33N 46°30' W 001°47'0 0.0
2016-May-13 13:33N 46°30' W 001°47'0 0.2
2016-May-13 12:33N 46°30' W 001°48'0 0.0
2016-May-13 11:33N 46°30' W 001°48'0 0.0
2016-May-13 10:33N 46°30' W 001°48'0 0.0
2016-May-13 09:32N 46°30' W 001°48'0 0.0
2016-May-13 08:32N 46°30' W 001°48'0 0.2
2016-May-13 07:31N 46°30' W 001°47'0 0.0
2016-May-13 06:31N 46°30' W 001°47'0 0.0
2016-May-13 05:31N 46°30' W 001°47'0 0.0
2016-May-13 04:31N 46°30' W 001°47'0 0.0
2016-May-13 03:31N 46°30' W 001°47'0 0.0
2016-May-13 02:31N 46°30' W 001°47'0 0.0
2016-May-13 01:31N 46°30' W 001°47'0 0.0
2016-May-13 00:31N 46°30' W 001°47'0 0.0
2016-May-12 23:31N 46°30' W 001°47'0 0.0
2016-May-12 22:31N 46°30' W 001°47'0 0.0
2016-May-12 21:31N 46°30' W 001°47'0 0.0
2016-May-12 20:31N 46°30' W 001°47'0 0.0
2016-May-12 19:31N 46°30' W 001°47'0 0.0
2016-May-12 18:31N 46°30' W 001°47'0 0.0
2016-May-12 17:31N 46°30' W 001°47'0 0.0
2016-May-12 16:31N 46°30' W 001°47'0 0.0
2016-May-12 15:31N 46°30' W 001°47'0 0.0
2016-May-12 14:31N 46°30' W 001°47'0 0.0
2016-May-12 13:31N 46°30' W 001°47'0 0.0
2016-May-12 12:31N 46°30' W 001°47'0 0.0
2016-May-12 11:31N 46°30' W 001°47'0 0.0
2016-May-12 10:31N 46°30' W 001°47'0 0.0
2016-May-12 09:31N 46°30' W 001°47'0 0.0
2016-May-12 08:31N 46°30' W 001°47'0 0.0
2016-May-12 07:31N 46°30' W 001°47'0 0.0
2016-May-12 06:31N 46°30' W 001°47'0 0.0
2016-May-12 05:31N 46°30' W 001°47'0 0.0
2016-May-12 04:31N 46°30' W 001°47'0 0.0
2016-May-12 03:32N 46°30' W 001°47'0 0.0
2016-May-12 02:31N 46°30' W 001°47'0 0.0
2016-May-12 01:31N 46°30' W 001°47'0 0.0
2016-May-12 00:31N 46°30' W 001°47'0 0.2
2016-May-11 23:33N 46°30' W 001°47'6 5.6
2016-May-11 22:33N 46°32' W 001°55'9 8.8
2016-May-11 21:33N 46°37' W 002°05'35 8.5
2016-May-11 17:30N 47°07' W 002°32'9 8.9
2016-May-11 16:30N 47°15' W 002°34'3 1.4
2016-May-11 14:33N 47°18' W 002°35'2 1.7
2016-May-11 13:33N 47°16' W 002°33'4 4.1
2016-May-11 12:32N 47°15' W 002°39'5 5.2
2016-May-11 11:34N 47°15' W 002°47'1 0.5
2016-May-11 10:33N 47°15' W 002°46'1 0.9
2016-May-11 09:32N 47°15' W 002°45'0 0.4
2016-May-11 08:33N 47°15' W 002°45'1 0.7
2016-May-11 07:33N 47°15' W 002°46'4 3.5
2016-May-11 06:33N 47°15' W 002°40'8 8.2
2016-May-11 05:32N 47°20' W 002°31'1 0.1
2016-May-10 20:14N 47°21' W 002°31'0 0.0
2016-May-10 19:32N 47°21' W 002°31'0 0.0
2016-May-10 16:33N 47°21' W 002°31'0 0.0
2016-May-10 15:05N 47°21' W 002°31'0 0.0
2016-May-10 14:32N 47°21' W 002°31'  

Dump ship's entire track history